PWSweather.com
Personal Weather Stations
Station Observations

YeovilGB

Lat: 50.949, Lon: -2.627

Elevation: 70

Station Type: Vantage Pro

http://www.yeovil-weather.me.uk/

High Low Average
Temperature 46.9°F8.3°C 41.7°F5.4°C 44.7°F7.1°C
Dew Point 45.8°F7.7°C 39.0°F3.9°C 42.5°F5.8°C
Winds 3.5 mph 5.6 kmh Calm Calm 1.0 mph E1.6 kmh E
Wind Gusts 12.7 mph20.4 kmh -- 4.0 mph6.4 kmh
Humidity 96% 87% 92%
Pressure 29.65 in1004.1 mb 29.36 in994.2 mb -
Precipitation 0.20 in5.1 mm - -
Hour Temp Dew Point Humidity Winds Wind Gusts Pressure Precip Precip Rate Daily Precip Total
12:00 AM 43.6°F6.4°C 39.9°F4.4°C 87% Calm Calm -- 29.65 in1004.1 mb - 0.00 in0.0 mm 0.00 in0.0 mm
12:10 AM 43.3°F6.3°C 39.7°F4.3°C 87% 1.2 mph E1.9 kmh E 4.6 mph7.4 kmh 29.65 in1004.1 mb - 0.00 in0.0 mm 0.00 in0.0 mm
12:20 AM 43.1°F6.2°C 39.5°F4.2°C 87% Calm Calm -- 29.65 in1004.1 mb - 0.00 in0.0 mm 0.00 in0.0 mm
12:30 AM 43.0°F6.1°C 39.7°F4.3°C 88% Calm Calm -- 29.65 in1004.1 mb - 0.00 in0.0 mm 0.00 in0.0 mm
12:40 AM 42.8°F6.0°C 39.5°F4.2°C 88% 1.2 mph NE1.9 kmh NE 3.5 mph5.6 kmh 29.64 in1003.7 mb - 0.00 in0.0 mm 0.00 in0.0 mm
12:50 AM 42.6°F5.9°C 39.3°F4.1°C 88% Calm Calm -- 29.64 in1003.7 mb - 0.00 in0.0 mm 0.00 in0.0 mm
01:00 AM 42.5°F5.8°C 39.5°F4.2°C 89% Calm Calm -- 29.64 in1003.7 mb - 0.00 in0.0 mm 0.00 in0.0 mm
01:10 AM 42.3°F5.7°C 39.3°F4.1°C 89% Calm Calm 1.2 mph1.9 kmh 29.64 in1003.7 mb - 0.00 in0.0 mm 0.00 in0.0 mm
01:20 AM 42.1°F5.6°C 39.1°F3.9°C 89% 1.2 mph ESE1.9 kmh ESE 2.3 mph3.7 kmh 29.64 in1003.7 mb - 0.00 in0.0 mm 0.00 in0.0 mm
01:30 AM 42.1°F5.6°C 39.4°F4.1°C 90% 1.2 mph E1.9 kmh E 3.5 mph5.6 kmh 29.63 in1003.4 mb - 0.00 in0.0 mm 0.00 in0.0 mm
01:50 AM 41.9°F5.5°C 39.2°F4.0°C 90% Calm Calm 4.6 mph7.4 kmh 29.63 in1003.4 mb - 0.00 in0.0 mm 0.00 in0.0 mm
02:00 AM 41.8°F5.4°C 39.1°F3.9°C 90% 2.3 mph E3.7 kmh E 6.9 mph11.1 kmh 29.63 in1003.4 mb - 0.00 in0.0 mm 0.00 in0.0 mm
02:10 AM 41.8°F5.4°C 39.1°F3.9°C 90% Calm Calm 2.3 mph3.7 kmh 29.62 in1003.0 mb - 0.00 in0.0 mm 0.00 in0.0 mm
02:20 AM 41.8°F5.4°C 39.0°F3.9°C 90% Calm Calm 2.3 mph3.7 kmh 29.62 in1003.0 mb - 0.00 in0.0 mm 0.00 in0.0 mm
02:30 AM 41.8°F5.4°C 39.3°F4.1°C 91% Calm Calm -- 29.62 in1003.0 mb - 0.00 in0.0 mm 0.00 in0.0 mm
02:40 AM 41.7°F5.4°C 39.3°F4.1°C 91% Calm Calm -- 29.62 in1003.0 mb - 0.00 in0.0 mm 0.00 in0.0 mm
02:50 AM 41.7°F5.4°C 39.3°F4.1°C 91% 1.2 mph ESE1.9 kmh ESE 5.8 mph9.3 kmh 29.62 in1003.0 mb - 0.00 in0.0 mm 0.00 in0.0 mm
03:00 AM 41.8°F5.4°C 39.4°F4.1°C 91% 1.2 mph E1.9 kmh E 5.8 mph9.3 kmh 29.62 in1003.0 mb - 0.00 in0.0 mm 0.00 in0.0 mm
03:10 AM 42.0°F5.6°C 39.6°F4.2°C 91% 3.5 mph E5.6 kmh E 6.9 mph11.1 kmh 29.61 in1002.7 mb - 0.00 in0.0 mm 0.00 in0.0 mm
03:20 AM 42.3°F5.7°C 39.8°F4.3°C 91% 1.2 mph ESE1.9 kmh ESE 4.6 mph7.4 kmh 29.61 in1002.7 mb - 0.00 in0.0 mm 0.00 in0.0 mm
03:30 AM 42.4°F5.8°C 39.7°F4.3°C 90% 1.2 mph E1.9 kmh E 8.1 mph13.0 kmh 29.61 in1002.7 mb - 0.00 in0.0 mm 0.00 in0.0 mm
03:40 AM 42.5°F5.8°C 40.0°F4.4°C 91% 1.2 mph E1.9 kmh E 4.6 mph7.4 kmh 29.61 in1002.7 mb - 0.00 in0.0 mm 0.00 in0.0 mm
03:50 AM 42.5°F5.8°C 39.8°F4.3°C 90% 2.3 mph SE3.7 kmh SE 11.5 mph18.5 kmh 29.60 in1002.4 mb - 0.00 in0.0 mm 0.00 in0.0 mm
04:00 AM 42.6°F5.9°C 39.9°F4.4°C 90% 1.2 mph E1.9 kmh E 4.6 mph7.4 kmh 29.60 in1002.4 mb - 0.00 in0.0 mm 0.00 in0.0 mm
04:10 AM 42.5°F5.8°C 39.8°F4.3°C 90% 3.5 mph ESE5.6 kmh ESE 9.2 mph14.8 kmh 29.60 in1002.4 mb - 0.00 in0.0 mm 0.00 in0.0 mm
04:20 AM 42.6°F5.9°C 39.9°F4.4°C 90% 1.2 mph ESE1.9 kmh ESE 8.1 mph13.0 kmh 29.60 in1002.4 mb - 0.00 in0.0 mm 0.00 in0.0 mm
04:30 AM 42.5°F5.8°C 39.8°F4.3°C 90% Calm Calm 2.3 mph3.7 kmh 29.59 in1002.0 mb - 0.00 in0.0 mm 0.00 in0.0 mm
04:40 AM 42.5°F5.8°C 39.7°F4.3°C 90% Calm Calm 8.1 mph13.0 kmh 29.59 in1002.0 mb - 0.00 in0.0 mm 0.00 in0.0 mm
04:50 AM 42.4°F5.8°C 39.7°F4.3°C 90% 1.2 mph ESE1.9 kmh ESE 10.4 mph16.7 kmh 29.59 in1002.0 mb - 0.00 in0.0 mm 0.00 in0.0 mm
05:00 AM 42.4°F5.8°C 39.9°F4.4°C 91% 2.3 mph E3.7 kmh E 9.2 mph14.8 kmh 29.59 in1002.0 mb - 0.00 in0.0 mm 0.00 in0.0 mm
05:10 AM 42.3°F5.7°C 39.9°F4.4°C 91% 1.2 mph E1.9 kmh E 6.9 mph11.1 kmh 29.59 in1002.0 mb - 0.00 in0.0 mm 0.00 in0.0 mm
05:20 AM 42.2°F5.7°C 39.8°F4.3°C 91% 1.2 mph SE1.9 kmh SE 3.5 mph5.6 kmh 29.59 in1002.0 mb - 0.00 in0.0 mm 0.00 in0.0 mm
05:30 AM 42.2°F5.7°C 39.8°F4.3°C 91% 2.3 mph SE3.7 kmh SE 5.8 mph9.3 kmh 29.58 in1001.7 mb - 0.00 in0.0 mm 0.00 in0.0 mm
05:40 AM 42.2°F5.7°C 39.8°F4.3°C 91% 1.2 mph ESE1.9 kmh ESE 8.1 mph13.0 kmh 29.58 in1001.7 mb - 0.00 in0.0 mm 0.00 in0.0 mm
05:50 AM 42.4°F5.8°C 40.0°F4.4°C 91% 3.5 mph ESE5.6 kmh ESE 8.1 mph13.0 kmh 29.58 in1001.7 mb - 0.00 in0.0 mm 0.00 in0.0 mm
06:00 AM 42.6°F5.9°C 40.2°F4.6°C 91% 1.2 mph E1.9 kmh E 8.1 mph13.0 kmh 29.58 in1001.7 mb - 0.00 in0.0 mm 0.00 in0.0 mm
06:10 AM 42.7°F5.9°C 40.3°F4.6°C 91% Calm Calm 2.3 mph3.7 kmh 29.58 in1001.7 mb - 0.00 in0.0 mm 0.00 in0.0 mm
06:20 AM 42.8°F6.0°C 40.1°F4.5°C 90% 1.2 mph ESE1.9 kmh ESE 4.6 mph7.4 kmh 29.58 in1001.7 mb - 0.00 in0.0 mm 0.00 in0.0 mm
06:30 AM 42.9°F6.1°C 40.2°F4.6°C 90% 1.2 mph E1.9 kmh E 4.6 mph7.4 kmh 29.58 in1001.7 mb - 0.00 in0.0 mm 0.00 in0.0 mm
06:40 AM 42.9°F6.1°C 40.2°F4.6°C 90% 1.2 mph E1.9 kmh E 6.9 mph11.1 kmh 29.58 in1001.7 mb - 0.00 in0.0 mm 0.00 in0.0 mm
06:50 AM 43.0°F6.1°C 40.3°F4.6°C 90% 1.2 mph E1.9 kmh E 5.8 mph9.3 kmh 29.58 in1001.7 mb - 0.00 in0.0 mm 0.00 in0.0 mm
07:00 AM 42.9°F6.1°C 40.2°F4.6°C 90% Calm Calm 8.1 mph13.0 kmh 29.57 in1001.4 mb - 0.00 in0.0 mm 0.00 in0.0 mm
07:10 AM 43.0°F6.1°C 40.2°F4.6°C 90% 2.3 mph E3.7 kmh E 8.1 mph13.0 kmh 29.57 in1001.4 mb - 0.00 in0.0 mm 0.00 in0.0 mm
07:20 AM 43.1°F6.2°C 40.4°F4.7°C 90% 2.3 mph E3.7 kmh E 3.5 mph5.6 kmh 29.57 in1001.4 mb - 0.00 in0.0 mm 0.00 in0.0 mm
07:30 AM 43.2°F6.2°C 40.8°F4.9°C 91% 2.3 mph E3.7 kmh E 6.9 mph11.1 kmh 29.57 in1001.4 mb - 0.00 in0.0 mm 0.00 in0.0 mm
07:40 AM 43.2°F6.2°C 40.8°F4.9°C 91% 1.2 mph E1.9 kmh E 6.9 mph11.1 kmh 29.57 in1001.4 mb - 0.00 in0.0 mm 0.00 in0.0 mm
07:50 AM 43.2°F6.2°C 40.7°F4.8°C 91% 2.3 mph E3.7 kmh E 11.5 mph18.5 kmh 29.57 in1001.4 mb - 0.00 in0.0 mm 0.00 in0.0 mm
08:00 AM 43.0°F6.1°C 40.6°F4.8°C 91% 1.2 mph E1.9 kmh E 3.5 mph5.6 kmh 29.58 in1001.7 mb - 0.00 in0.0 mm 0.00 in0.0 mm
08:10 AM 43.0°F6.1°C 40.6°F4.8°C 91% 1.2 mph E1.9 kmh E 4.6 mph7.4 kmh 29.58 in1001.7 mb - 0.00 in0.0 mm 0.00 in0.0 mm
08:20 AM 43.0°F6.1°C 40.5°F4.7°C 91% 2.3 mph E3.7 kmh E 9.2 mph14.8 kmh 29.57 in1001.4 mb - 0.00 in0.0 mm 0.00 in0.0 mm
08:30 AM 43.1°F6.2°C 40.7°F4.8°C 91% 2.3 mph E3.7 kmh E 11.5 mph18.5 kmh 29.57 in1001.4 mb - 0.00 in0.0 mm 0.00 in0.0 mm
08:40 AM 43.2°F6.2°C 40.8°F4.9°C 91% 3.5 mph E5.6 kmh E 12.7 mph20.4 kmh 29.56 in1001.0 mb - 0.00 in0.0 mm 0.00 in0.0 mm
08:50 AM 43.4°F6.3°C 40.9°F4.9°C 91% 1.2 mph E1.9 kmh E 8.1 mph13.0 kmh 29.56 in1001.0 mb - 0.00 in0.0 mm 0.00 in0.0 mm
09:00 AM 43.6°F6.4°C 40.9°F4.9°C 90% 3.5 mph E5.6 kmh E 12.7 mph20.4 kmh 29.57 in1001.4 mb - 0.00 in0.0 mm 0.00 in0.0 mm
09:10 AM 43.8°F6.6°C 40.8°F4.9°C 89% 1.2 mph E1.9 kmh E 11.5 mph18.5 kmh 29.56 in1001.0 mb - 0.00 in0.0 mm 0.00 in0.0 mm
09:20 AM 44.0°F6.7°C 41.0°F5.0°C 89% 2.3 mph E3.7 kmh E 6.9 mph11.1 kmh 29.56 in1001.0 mb - 0.00 in0.0 mm 0.00 in0.0 mm
09:30 AM 44.0°F6.7°C 41.0°F5.0°C 89% 1.2 mph E1.9 kmh E 3.5 mph5.6 kmh 29.56 in1001.0 mb - 0.00 in0.0 mm 0.00 in0.0 mm
09:40 AM 44.1°F6.7°C 41.0°F5.0°C 89% 1.2 mph E1.9 kmh E 5.8 mph9.3 kmh 29.56 in1001.0 mb - 0.00 in0.0 mm 0.00 in0.0 mm
09:50 AM 44.2°F6.8°C 41.2°F5.1°C 89% 3.5 mph E5.6 kmh E 10.4 mph16.7 kmh 29.56 in1001.0 mb - 0.00 in0.0 mm 0.00 in0.0 mm
10:00 AM 44.3°F6.8°C 41.5°F5.3°C 90% Calm Calm 6.9 mph11.1 kmh 29.56 in1001.0 mb - 0.00 in0.0 mm 0.00 in0.0 mm
10:10 AM 44.3°F6.8°C 41.6°F5.3°C 90% Calm Calm 4.6 mph7.4 kmh 29.56 in1001.0 mb - 0.00 in0.0 mm 0.00 in0.0 mm
10:20 AM 44.4°F6.9°C 41.7°F5.4°C 90% 2.3 mph ENE3.7 kmh ENE 9.2 mph14.8 kmh 29.56 in1001.0 mb - 0.00 in0.0 mm 0.00 in0.0 mm
10:30 AM 44.6°F7.0°C 41.8°F5.4°C 90% 2.3 mph E3.7 kmh E 3.5 mph5.6 kmh 29.56 in1001.0 mb - 0.00 in0.0 mm 0.00 in0.0 mm
10:40 AM 45.0°F7.2°C 42.2°F5.7°C 90% Calm Calm 6.9 mph11.1 kmh 29.55 in1000.7 mb - 0.00 in0.0 mm 0.00 in0.0 mm
10:50 AM 45.2°F7.3°C 42.5°F5.8°C 90% 1.2 mph E1.9 kmh E 3.5 mph5.6 kmh 29.55 in1000.7 mb - 0.00 in0.0 mm 0.00 in0.0 mm
11:00 AM 45.4°F7.4°C 42.6°F5.9°C 90% 1.2 mph ESE1.9 kmh ESE 9.2 mph14.8 kmh 29.54 in1000.3 mb - 0.00 in0.0 mm 0.00 in0.0 mm
11:10 AM 45.5°F7.5°C 42.4°F5.8°C 89% 1.2 mph E1.9 kmh E 4.6 mph7.4 kmh 29.54 in1000.3 mb - 0.00 in0.0 mm 0.00 in0.0 mm
11:20 AM 45.5°F7.5°C 42.7°F5.9°C 90% Calm Calm 4.6 mph7.4 kmh 29.53 in1000.0 mb - 0.00 in0.0 mm 0.00 in0.0 mm
11:30 AM 45.6°F7.6°C 42.6°F5.9°C 89% 2.3 mph ENE3.7 kmh ENE 8.1 mph13.0 kmh 29.53 in1000.0 mb - 0.00 in0.0 mm 0.00 in0.0 mm
11:40 AM 45.8°F7.7°C 42.7°F5.9°C 89% 2.3 mph E3.7 kmh E 6.9 mph11.1 kmh 29.52 in999.7 mb - 0.00 in0.0 mm 0.00 in0.0 mm
11:50 AM 46.0°F7.8°C 43.2°F6.2°C 90% 1.2 mph E1.9 kmh E 3.5 mph5.6 kmh 29.52 in999.7 mb - 0.00 in0.0 mm 0.00 in0.0 mm
12:00 PM 46.1°F7.8°C 43.1°F6.2°C 89% Calm Calm 2.3 mph3.7 kmh 29.52 in999.7 mb - 0.00 in0.0 mm 0.00 in0.0 mm
12:10 PM 46.3°F7.9°C 43.2°F6.2°C 89% 1.2 mph ENE1.9 kmh ENE 3.5 mph5.6 kmh 29.52 in999.7 mb - 0.00 in0.0 mm 0.00 in0.0 mm
12:20 PM 46.5°F8.1°C 43.4°F6.3°C 89% 1.2 mph E1.9 kmh E 4.6 mph7.4 kmh 29.51 in999.3 mb - 0.00 in0.0 mm 0.00 in0.0 mm
12:30 PM 46.7°F8.2°C 43.3°F6.3°C 88% 1.2 mph NE1.9 kmh NE -- 29.51 in999.3 mb - 0.00 in0.0 mm 0.00 in0.0 mm
12:40 PM 46.8°F8.2°C 43.4°F6.3°C 88% Calm Calm -- 29.50 in999.0 mb - 0.00 in0.0 mm 0.00 in0.0 mm
12:50 PM 46.8°F8.2°C 43.5°F6.4°C 88% Calm Calm 4.6 mph7.4 kmh 29.50 in999.0 mb - 0.00 in0.0 mm 0.00 in0.0 mm
01:00 PM 46.7°F8.2°C 43.3°F6.3°C 88% 1.2 mph E1.9 kmh E 6.9 mph11.1 kmh 29.49 in998.6 mb - 0.00 in0.0 mm 0.00 in0.0 mm
01:10 PM 46.7°F8.2°C 43.3°F6.3°C 88% Calm Calm 2.3 mph3.7 kmh 29.49 in998.6 mb - 0.00 in0.0 mm 0.00 in0.0 mm
01:20 PM 46.6°F8.1°C 43.2°F6.2°C 88% 3.5 mph ENE5.6 kmh ENE 11.5 mph18.5 kmh 29.49 in998.6 mb - 0.00 in0.0 mm 0.00 in0.0 mm
01:30 PM 46.5°F8.1°C 43.1°F6.2°C 88% 1.2 mph E1.9 kmh E 4.6 mph7.4 kmh 29.48 in998.3 mb - 0.00 in0.0 mm 0.00 in0.0 mm
01:40 PM 46.4°F8.0°C 43.4°F6.3°C 89% Calm Calm 2.3 mph3.7 kmh 29.48 in998.3 mb - 0.00 in0.0 mm 0.00 in0.0 mm
01:50 PM 46.1°F7.8°C 43.3°F6.3°C 90% 1.2 mph SE1.9 kmh SE -- 29.47 in998.0 mb - 0.00 in0.0 mm 0.00 in0.0 mm
02:00 PM 45.9°F7.7°C 43.1°F6.2°C 90% 1.2 mph E1.9 kmh E 10.4 mph16.7 kmh 29.47 in998.0 mb - 0.00 in0.0 mm 0.00 in0.0 mm
02:10 PM 45.7°F7.6°C 43.2°F6.2°C 91% Calm Calm 4.6 mph7.4 kmh 29.47 in998.0 mb - 0.00 in0.0 mm 0.00 in0.0 mm
02:20 PM 45.6°F7.6°C 43.1°F6.2°C 91% Calm Calm 4.6 mph7.4 kmh 29.46 in997.6 mb - 0.00 in0.0 mm 0.00 in0.0 mm
02:30 PM 45.5°F7.5°C 43.3°F6.3°C 92% 2.3 mph E3.7 kmh E 5.8 mph9.3 kmh 29.46 in997.6 mb - 0.00 in0.0 mm 0.00 in0.0 mm
02:40 PM 45.4°F7.4°C 43.2°F6.2°C 92% 3.5 mph E5.6 kmh E 6.9 mph11.1 kmh 29.46 in997.6 mb - 0.00 in0.0 mm 0.00 in0.0 mm
02:50 PM 45.4°F7.4°C 43.5°F6.4°C 93% 2.3 mph E3.7 kmh E 11.5 mph18.5 kmh 29.46 in997.6 mb - 0.00 in0.0 mm 0.00 in0.0 mm
03:00 PM 45.4°F7.4°C 43.5°F6.4°C 93% 1.2 mph E1.9 kmh E 8.1 mph13.0 kmh 29.46 in997.6 mb - 0.00 in0.0 mm 0.00 in0.0 mm
03:10 PM 45.5°F7.5°C 43.5°F6.4°C 93% 1.2 mph E1.9 kmh E 6.9 mph11.1 kmh 29.45 in997.3 mb - 0.01 in0.3 mm 0.01 in0.3 mm
03:20 PM 45.5°F7.5°C 43.9°F6.6°C 94% Calm Calm -- 29.45 in997.3 mb - 0.00 in0.0 mm 0.01 in0.3 mm
03:30 PM 45.5°F7.5°C 43.9°F6.6°C 94% 1.2 mph E1.9 kmh E 10.4 mph16.7 kmh 29.45 in997.3 mb - 0.01 in0.3 mm 0.02 in0.5 mm
03:40 PM 45.6°F7.6°C 44.0°F6.7°C 94% 1.2 mph E1.9 kmh E 4.6 mph7.4 kmh 29.45 in997.3 mb - 0.00 in0.0 mm 0.02 in0.5 mm
03:50 PM 45.6°F7.6°C 44.0°F6.7°C 94% 1.2 mph E1.9 kmh E 1.2 mph1.9 kmh 29.45 in997.3 mb - 0.00 in0.0 mm 0.02 in0.5 mm
04:00 PM 45.6°F7.6°C 44.0°F6.7°C 94% 1.2 mph E1.9 kmh E 4.6 mph7.4 kmh 29.45 in997.3 mb - 0.00 in0.0 mm 0.02 in0.5 mm
04:10 PM 45.7°F7.6°C 44.1°F6.7°C 94% Calm Calm 3.5 mph5.6 kmh 29.44 in997.0 mb - 0.00 in0.0 mm 0.02 in0.5 mm
04:20 PM 45.7°F7.6°C 44.4°F6.9°C 95% 1.2 mph ENE1.9 kmh ENE 5.8 mph9.3 kmh 29.43 in996.6 mb - 0.00 in0.0 mm 0.02 in0.5 mm
04:30 PM 45.8°F7.7°C 44.4°F6.9°C 95% 1.2 mph E1.9 kmh E 2.3 mph3.7 kmh 29.43 in996.6 mb - 0.00 in0.0 mm 0.02 in0.5 mm
04:40 PM 45.9°F7.7°C 44.5°F6.9°C 95% Calm Calm -- 29.44 in997.0 mb - 0.01 in0.3 mm 0.02 in0.5 mm
04:50 PM 46.0°F7.8°C 44.6°F7.0°C 95% 2.3 mph E3.7 kmh E 10.4 mph16.7 kmh 29.44 in997.0 mb - 0.00 in0.0 mm 0.02 in0.5 mm
05:00 PM 46.0°F7.8°C 44.6°F7.0°C 95% Calm Calm -- 29.43 in996.6 mb - 0.00 in0.0 mm 0.02 in0.5 mm
05:10 PM 46.1°F7.8°C 44.7°F7.1°C 95% Calm Calm 5.8 mph9.3 kmh 29.43 in996.6 mb - 0.00 in0.0 mm 0.02 in0.5 mm
05:20 PM 46.1°F7.8°C 44.7°F7.1°C 95% Calm Calm -- 29.43 in996.6 mb - 0.01 in0.3 mm 0.03 in0.8 mm
05:30 PM 46.2°F7.9°C 44.8°F7.1°C 95% Calm Calm -- 29.43 in996.6 mb - 0.00 in0.0 mm 0.03 in0.8 mm
05:40 PM 46.3°F7.9°C 44.9°F7.2°C 95% 1.2 mph ENE1.9 kmh ENE -- 29.43 in996.6 mb - 0.01 in0.3 mm 0.04 in1.0 mm
05:50 PM 46.3°F7.9°C 45.2°F7.3°C 96% 1.2 mph E1.9 kmh E 1.2 mph1.9 kmh 29.43 in996.6 mb - 0.00 in0.0 mm 0.04 in1.0 mm
06:00 PM 46.4°F8.0°C 45.3°F7.4°C 96% Calm Calm -- 29.43 in996.6 mb - 0.01 in0.3 mm 0.05 in1.3 mm
06:10 PM 46.4°F8.0°C 45.3°F7.4°C 96% Calm Calm -- 29.42 in996.3 mb - 0.00 in0.0 mm 0.05 in1.3 mm
06:20 PM 46.5°F8.1°C 45.4°F7.4°C 96% Calm Calm -- 29.42 in996.3 mb - 0.00 in0.0 mm 0.05 in1.3 mm
06:30 PM 46.5°F8.1°C 45.4°F7.4°C 96% Calm Calm -- 29.42 in996.3 mb - 0.00 in0.0 mm 0.05 in1.3 mm
06:40 PM 46.5°F8.1°C 45.5°F7.5°C 96% Calm Calm -- 29.42 in996.3 mb - 0.00 in0.0 mm 0.05 in1.3 mm
06:50 PM 46.6°F8.1°C 45.5°F7.5°C 96% Calm Calm -- 29.42 in996.3 mb - 0.00 in0.0 mm 0.05 in1.3 mm
07:00 PM 46.7°F8.2°C 45.6°F7.6°C 96% Calm Calm -- 29.42 in996.3 mb - 0.00 in0.0 mm 0.05 in1.3 mm
07:10 PM 46.7°F8.2°C 45.6°F7.6°C 96% Calm Calm -- 29.42 in996.3 mb - 0.00 in0.0 mm 0.05 in1.3 mm
07:20 PM 46.7°F8.2°C 45.6°F7.6°C 96% Calm Calm -- 29.42 in996.3 mb - 0.00 in0.0 mm 0.05 in1.3 mm
07:30 PM 46.8°F8.2°C 45.7°F7.6°C 96% Calm Calm 2.3 mph3.7 kmh 29.42 in996.3 mb - 0.00 in0.0 mm 0.05 in1.3 mm
07:40 PM 46.8°F8.2°C 45.7°F7.6°C 96% Calm Calm -- 29.41 in995.9 mb - 0.01 in0.3 mm 0.06 in1.5 mm
07:50 PM 46.8°F8.2°C 45.7°F7.6°C 96% Calm Calm -- 29.41 in995.9 mb - 0.01 in0.3 mm 0.06 in1.5 mm
08:00 PM 46.8°F8.2°C 45.7°F7.6°C 96% Calm Calm -- 29.41 in995.9 mb - 0.00 in0.0 mm 0.06 in1.5 mm
08:10 PM 46.8°F8.2°C 45.7°F7.6°C 96% Calm Calm -- 29.41 in995.9 mb - 0.01 in0.3 mm 0.07 in1.8 mm
08:20 PM 46.8°F8.2°C 45.7°F7.6°C 96% 1.2 mph E1.9 kmh E 5.8 mph9.3 kmh 29.41 in995.9 mb - 0.00 in0.0 mm 0.07 in1.8 mm
08:30 PM 46.9°F8.3°C 45.8°F7.7°C 96% Calm Calm 4.6 mph7.4 kmh 29.40 in995.6 mb - 0.00 in0.0 mm 0.07 in1.8 mm
08:50 PM 46.9°F8.3°C 45.8°F7.7°C 96% Calm Calm 1.2 mph1.9 kmh 29.40 in995.6 mb - 0.02 in0.5 mm 0.09 in2.3 mm
09:00 PM 46.9°F8.3°C 45.8°F7.7°C 96% Calm Calm 4.6 mph7.4 kmh 29.40 in995.6 mb - 0.00 in0.0 mm 0.09 in2.3 mm
09:10 PM 46.9°F8.3°C 45.8°F7.7°C 96% 1.2 mph ESE1.9 kmh ESE 4.6 mph7.4 kmh 29.39 in995.3 mb - 0.00 in0.0 mm 0.09 in2.3 mm
09:20 PM 46.9°F8.3°C 45.8°F7.7°C 96% Calm Calm 3.5 mph5.6 kmh 29.39 in995.3 mb - 0.01 in0.3 mm 0.09 in2.3 mm
09:30 PM 46.9°F8.3°C 45.8°F7.7°C 96% Calm Calm 2.3 mph3.7 kmh 29.39 in995.3 mb - 0.01 in0.3 mm 0.09 in2.3 mm
09:40 PM 46.8°F8.2°C 45.7°F7.6°C 96% 1.2 mph SSE1.9 kmh SSE -- 29.39 in995.3 mb - 0.02 in0.5 mm 0.11 in2.8 mm
09:50 PM 46.7°F8.2°C 45.6°F7.6°C 96% Calm Calm -- 29.39 in995.3 mb - 0.02 in0.5 mm 0.13 in3.3 mm
10:00 PM 46.5°F8.1°C 45.4°F7.4°C 96% Calm Calm -- 29.39 in995.3 mb - 0.00 in0.0 mm 0.13 in3.3 mm
10:10 PM 46.5°F8.1°C 45.4°F7.4°C 96% Calm Calm -- 29.39 in995.3 mb - 0.00 in0.0 mm 0.13 in3.3 mm
10:20 PM 46.5°F8.1°C 45.4°F7.4°C 96% Calm Calm -- 29.38 in994.9 mb - 0.01 in0.3 mm 0.13 in3.3 mm
10:30 PM 46.5°F8.1°C 45.4°F7.4°C 96% Calm Calm -- 29.38 in994.9 mb - 0.02 in0.5 mm 0.15 in3.8 mm
10:40 PM 46.4°F8.0°C 45.3°F7.4°C 96% Calm Calm -- 29.38 in994.9 mb - 0.01 in0.3 mm 0.16 in4.1 mm
10:50 PM 46.2°F7.9°C 45.1°F7.3°C 96% Calm Calm -- 29.38 in994.9 mb - 0.00 in0.0 mm 0.16 in4.1 mm
11:00 PM 46.0°F7.8°C 45.0°F7.2°C 96% Calm Calm -- 29.37 in994.6 mb - 0.01 in0.3 mm 0.17 in4.3 mm
11:10 PM 45.9°F7.7°C 44.8°F7.1°C 96% Calm Calm -- 29.37 in994.6 mb - 0.00 in0.0 mm 0.17 in4.3 mm
11:20 PM 45.8°F7.7°C 44.7°F7.1°C 96% Calm Calm -- 29.37 in994.6 mb - 0.00 in0.0 mm 0.17 in4.3 mm
11:30 PM 45.8°F7.7°C 44.7°F7.1°C 96% Calm Calm -- 29.37 in994.6 mb - 0.01 in0.3 mm 0.17 in4.3 mm
11:40 PM 45.8°F7.7°C 44.7°F7.1°C 96% Calm Calm -- 29.37 in994.6 mb - 0.01 in0.3 mm 0.18 in4.6 mm
11:50 PM 45.5°F7.5°C 44.4°F6.9°C 96% 1.2 mph SE1.9 kmh SE 2.3 mph3.7 kmh 29.36 in994.2 mb - 0.02 in0.5 mm 0.20 in5.1 mm